Weather at Federico Fellini International Airport

Public forecast

Using degrees Celsius for public forecast. Weather courtesy of forecast.io.

Current aviation weather report (METAR) for Federico Fellini International Airport

2024/06/19 17:20 (retrieved 23 minutes ago)

LIPR 191720Z 07004KT 040V100 CAVOK 28/18 Q1016

Aviation forecast (TAF) for Federico Fellini International Airport

2024/06/19 12:21 (retrieved 5 hours ago)

TAF LIPR 191100Z 1912/2012 07010KT CAVOK BECMG 1916/1918 VRB05KT BECMG 2009/2011 07010KT